createdAt,value
2022-12-23T00:00:42.733Z,94.45
2022-12-23T00:03:46.418Z,91.38
2022-12-23T00:06:49.932Z,105.05
2022-12-23T00:09:53.543Z,89.35
2022-12-23T00:13:15.369Z,91.43
2022-12-23T00:16:19.022Z,84.60
2022-12-23T00:19:22.543Z,84.50
2022-12-23T00:22:45.970Z,92.15
2022-12-23T00:25:49.414Z,81.75
2022-12-23T00:28:55.307Z,80.27
2022-12-23T00:31:58.804Z,85.30
2022-12-23T00:35:02.386Z,86.43
2022-12-23T00:38:06.124Z,94.90
2022-12-23T00:41:36.557Z,84.70
2022-12-23T00:44:40.011Z,88.27
2022-12-23T00:48:03.393Z,87.43
2022-12-23T00:51:07.247Z,83.95
2022-12-23T00:54:10.872Z,85.30
2022-12-23T00:57:14.386Z,82.22
2022-12-23T01:00:18.546Z,89.80
2022-12-23T01:03:40.831Z,85.63
2022-12-23T01:06:44.602Z,82.15
2022-12-23T01:09:48.121Z,77.82
2022-12-23T01:12:51.637Z,78.07
2022-12-23T01:16:04.705Z,83.77
2022-12-23T01:19:08.203Z,80.80
2022-12-23T01:22:11.729Z,75.38
2022-12-23T01:25:15.254Z,81.00
2022-12-23T01:28:18.714Z,84.07
2022-12-23T01:31:22.839Z,79.03
2022-12-23T01:34:31.059Z,81.45
2022-12-23T01:37:37.867Z,84.13
2022-12-23T01:40:43.834Z,80.50
2022-12-23T01:43:52.195Z,75.45
2022-12-23T01:46:55.683Z,70.80
2022-12-23T01:50:19.414Z,73.97
2022-12-23T01:53:26.236Z,78.82
2022-12-23T01:56:40.033Z,72.13
2022-12-23T02:00:03.232Z,77.45
2022-12-23T02:03:27.477Z,78.43
2022-12-23T02:07:04.578Z,80.07
2022-12-23T02:10:09.064Z,82.40
2022-12-23T02:14:10.043Z,76.22
2022-12-23T02:17:40.289Z,74.50
2022-12-23T02:21:20.605Z,81.10
2022-12-23T02:24:55.808Z,67.90
2022-12-23T02:28:37.388Z,78.47
2022-12-23T02:31:53.255Z,73.90
2022-12-23T02:35:33.501Z,77.00
2022-12-23T02:38:52.279Z,78.33
2022-12-23T02:42:07.388Z,76.60
2022-12-23T02:45:33.377Z,75.18
2022-12-23T02:48:36.905Z,79.20
2022-12-23T02:51:50.313Z,74.65
2022-12-23T02:54:59.349Z,67.87
2022-12-23T02:58:08.395Z,72.85
2022-12-23T03:01:15.118Z,80.68
2022-12-23T03:04:18.661Z,87.38
2022-12-23T03:07:41.580Z,89.25
2022-12-23T03:11:10.880Z,70.47
2022-12-23T03:14:58.801Z,76.95
2022-12-23T03:18:08.189Z,78.63
2022-12-23T03:21:32.073Z,79.88
2022-12-23T03:24:47.655Z,81.53
2022-12-23T03:28:17.072Z,76.10
2022-12-23T03:31:29.274Z,77.93
2022-12-23T03:34:38.444Z,83.85
2022-12-23T03:37:46.364Z,80.43
2022-12-23T03:41:02.784Z,91.00
2022-12-23T03:44:25.086Z,85.00
2022-12-23T03:47:38.175Z,84.70
2022-12-23T03:50:47.879Z,83.65
2022-12-23T03:53:58.033Z,92.32
2022-12-23T03:57:05.735Z,83.60
2022-12-23T04:00:09.940Z,89.03
2022-12-23T04:03:23.285Z,84.95
2022-12-23T04:06:30.638Z,91.10
2022-12-23T04:09:35.359Z,84.70
2022-12-23T04:12:39.535Z,94.13
2022-12-23T04:15:43.663Z,80.70
2022-12-23T04:18:47.237Z,86.15
2022-12-23T04:21:51.136Z,82.80
2022-12-23T04:24:54.603Z,79.97
2022-12-23T04:27:58.066Z,78.30
2022-12-23T04:31:01.610Z,83.37
2022-12-23T04:34:05.130Z,86.72
2022-12-23T04:37:08.612Z,86.32
2022-12-23T04:40:12.539Z,79.85
2022-12-23T04:43:16.179Z,78.53
2022-12-23T04:46:19.760Z,85.37
2022-12-23T04:49:23.250Z,81.68
2022-12-23T04:52:26.716Z,83.60
2022-12-23T04:55:30.178Z,85.07
2022-12-23T04:58:33.789Z,80.00
2022-12-23T05:01:37.430Z,82.20
2022-12-23T05:04:41.144Z,88.35
2022-12-23T05:07:44.636Z,84.25
2022-12-23T05:10:49.630Z,86.45
2022-12-23T05:13:53.065Z,84.00
2022-12-23T05:16:59.534Z,89.57
2022-12-23T05:20:06.083Z,81.57
2022-12-23T05:23:09.927Z,83.72
2022-12-23T05:26:13.476Z,82.90
2022-12-23T05:29:17.383Z,83.55
2022-12-23T05:32:20.788Z,83.40
2022-12-23T05:35:25.816Z,93.70
2022-12-23T05:38:29.425Z,91.47
2022-12-23T05:41:32.943Z,88.50
2022-12-23T05:44:36.356Z,95.03
2022-12-23T05:47:39.863Z,85.07
2022-12-23T05:50:45.371Z,84.85
2022-12-23T05:53:49.064Z,86.63
2022-12-23T05:56:52.587Z,85.88
2022-12-23T05:59:56.605Z,83.03
2022-12-23T06:03:00.398Z,88.33
2022-12-23T06:06:04.084Z,82.15
2022-12-23T06:09:09.459Z,74.00
2022-12-23T06:12:13.163Z,82.68
2022-12-23T06:15:16.659Z,82.63
2022-12-23T06:18:20.235Z,72.33
2022-12-23T06:21:25.560Z,80.27
2022-12-23T06:24:29.059Z,73.97
2022-12-23T06:27:32.611Z,133.90
2022-12-23T06:30:36.479Z,94.40
2022-12-23T06:33:40.110Z,114.37
2022-12-23T06:36:43.630Z,102.43
2022-12-23T06:39:47.284Z,97.90
2022-12-23T06:42:50.891Z,94.75
2022-12-23T06:45:54.569Z,118.75
2022-12-23T06:48:58.192Z,83.10
2022-12-23T06:52:01.775Z,69.20
2022-12-23T06:55:05.757Z,73.90
2022-12-23T06:58:09.287Z,68.63
2022-12-23T07:01:14.371Z,69.10
2022-12-23T07:04:18.284Z,71.37
2022-12-23T07:07:21.816Z,70.80
2022-12-23T07:10:25.517Z,71.10
2022-12-23T07:13:29.621Z,69.95
2022-12-23T07:16:33.179Z,77.70
2022-12-23T07:19:36.776Z,70.17
2022-12-23T07:22:40.307Z,71.00
2022-12-23T07:25:44.245Z,72.40
2022-12-23T07:28:48.933Z,68.50
2022-12-23T07:31:53.308Z,60.35
2022-12-23T07:34:57.016Z,65.40
2022-12-23T07:38:00.564Z,65.23
2022-12-23T07:41:04.094Z,69.57
2022-12-23T07:44:08.924Z,73.97
2022-12-23T07:47:12.388Z,76.43
2022-12-23T07:50:17.318Z,78.30
2022-12-23T07:53:20.867Z,78.57
2022-12-23T07:56:24.519Z,78.25
2022-12-23T07:59:28.102Z,76.07
2022-12-23T08:02:31.739Z,80.53
2022-12-23T08:05:35.379Z,72.33
2022-12-23T08:08:40.554Z,84.80
2022-12-23T08:11:44.565Z,85.15
2022-12-23T08:14:48.608Z,83.03
2022-12-23T08:17:52.058Z,90.47
2022-12-23T08:21:04.452Z,83.10
2022-12-23T08:24:08.063Z,84.57
2022-12-23T08:27:11.471Z,73.35
2022-12-23T08:30:21.279Z,73.03
2022-12-23T08:33:24.729Z,91.05
2022-12-23T08:36:33.755Z,71.87
2022-12-23T08:39:37.447Z,71.07
2022-12-23T08:42:40.910Z,74.47
2022-12-23T08:45:44.908Z,71.63
2022-12-23T08:48:49.399Z,74.00
2022-12-23T08:51:53.483Z,78.37
2022-12-23T08:54:57.116Z,71.37
2022-12-23T08:58:00.617Z,68.65
2022-12-23T09:01:06.739Z,67.80
2022-12-23T09:04:10.498Z,75.78
2022-12-23T09:07:14.033Z,66.60
2022-12-23T09:10:19.330Z,69.27
2022-12-23T09:13:32.859Z,74.55
2022-12-23T09:16:39.198Z,71.95
2022-12-23T09:19:45.909Z,70.45
2022-12-23T09:22:53.793Z,68.77
2022-12-23T09:25:57.570Z,71.90
2022-12-23T09:29:01.090Z,79.28
2022-12-23T09:32:04.813Z,80.57
2022-12-23T09:35:08.514Z,70.97
2022-12-23T09:38:12.077Z,79.17
2022-12-23T09:41:30.728Z,71.23
2022-12-23T09:44:41.798Z,79.10
2022-12-23T09:47:45.851Z,80.10
2022-12-23T09:50:50.830Z,72.57
2022-12-23T09:54:05.859Z,78.23
2022-12-23T09:57:20.641Z,73.67
2022-12-23T10:00:26.361Z,81.18
2022-12-23T10:03:50.274Z,74.07
2022-12-23T10:07:06.023Z,70.65
2022-12-23T10:10:20.591Z,73.73
2022-12-23T10:13:39.515Z,69.90
2022-12-23T10:16:50.906Z,70.60
2022-12-23T10:19:59.977Z,63.78
2022-12-23T10:23:04.137Z,76.70
2022-12-23T10:26:24.278Z,91.67
2022-12-23T10:29:32.604Z,78.40
2022-12-23T10:32:57.250Z,68.65
2022-12-23T10:36:17.808Z,75.85
2022-12-23T10:39:45.650Z,74.47
2022-12-23T10:43:10.586Z,78.07
2022-12-23T10:47:04.499Z,97.13
2022-12-23T10:50:16.604Z,85.82
2022-12-23T10:54:05.826Z,79.70
2022-12-23T10:57:09.819Z,76.60
2022-12-23T11:00:21.637Z,70.60
2022-12-23T11:04:03.610Z,80.57
2022-12-23T11:07:42.834Z,89.10
2022-12-23T11:10:36.481Z,80.97
2022-12-23T11:13:42.787Z,99.15
2022-12-23T11:16:47.178Z,90.80
2022-12-23T11:20:10.230Z,85.47
2022-12-23T11:23:29.143Z,80.13
2022-12-23T11:26:32.917Z,79.30
2022-12-23T11:29:45.109Z,68.65
2022-12-23T11:32:48.936Z,74.83
2022-12-23T11:36:25.171Z,68.83
2022-12-23T11:39:36.975Z,119.32
2022-12-23T11:42:42.241Z,133.35
2022-12-23T11:45:45.736Z,113.93
2022-12-23T11:48:54.558Z,110.43
2022-12-23T11:52:06.174Z,111.90
2022-12-23T11:55:34.686Z,107.63
2022-12-23T11:58:48.666Z,153.48
2022-12-23T12:01:52.340Z,122.65
2022-12-23T12:05:07.079Z,115.10
2022-12-23T12:08:19.063Z,108.67
2022-12-23T12:11:30.001Z,100.80
2022-12-23T12:14:43.676Z,117.80
2022-12-23T12:17:49.945Z,101.25
2022-12-23T12:21:02.189Z,99.97
2022-12-23T12:24:28.469Z,86.27
2022-12-23T12:27:38.426Z,80.30
2022-12-23T12:30:58.051Z,65.20
2022-12-23T12:34:19.249Z,77.38
2022-12-23T12:37:44.112Z,77.93
2022-12-23T12:41:03.478Z,72.87
2022-12-23T12:44:22.120Z,68.10
2022-12-23T12:48:00.168Z,60.90
2022-12-23T12:51:28.420Z,57.60
2022-12-23T12:54:39.808Z,59.93
2022-12-23T12:57:43.445Z,59.90
2022-12-23T13:01:17.086Z,55.95
2022-12-23T13:04:40.405Z,75.78
2022-12-23T13:07:46.599Z,60.47
2022-12-23T13:11:22.134Z,62.27
2022-12-23T13:14:28.293Z,54.40
2022-12-23T13:17:47.877Z,57.05
2022-12-23T13:21:03.397Z,57.55
2022-12-23T13:24:39.644Z,63.60
2022-12-23T13:27:50.952Z,74.27
2022-12-23T13:31:12.523Z,68.53
2022-12-23T13:34:56.193Z,83.60
2022-12-23T13:38:18.478Z,80.15
2022-12-23T13:41:27.294Z,78.72
2022-12-23T13:44:33.199Z,86.30
2022-12-23T13:47:58.488Z,96.50
2022-12-23T13:51:32.709Z,83.50
2022-12-23T13:54:39.242Z,86.03
2022-12-23T13:58:11.456Z,111.30
2022-12-23T14:01:15.569Z,114.00
2022-12-23T14:04:57.887Z,108.53
2022-12-23T14:08:05.209Z,113.45
2022-12-23T14:11:22.101Z,118.60
2022-12-23T14:14:26.545Z,133.30
2022-12-23T14:17:50.403Z,114.57
2022-12-23T14:21:42.918Z,115.97
2022-12-23T14:25:01.357Z,153.57
2022-12-23T14:28:13.819Z,167.43
2022-12-23T14:31:46.063Z,150.32
2022-12-23T14:35:25.353Z,109.97
2022-12-23T14:38:33.202Z,94.57
2022-12-23T14:41:39.849Z,103.07
2022-12-23T14:44:46.690Z,121.82
2022-12-23T14:47:50.180Z,129.20
2022-12-23T14:51:02.928Z,106.70
2022-12-23T14:54:16.305Z,98.27
2022-12-23T14:57:34.961Z,110.10
2022-12-23T15:01:02.537Z,161.02
2022-12-23T15:04:33.514Z,153.57
2022-12-23T15:07:41.029Z,108.03
2022-12-23T15:10:46.390Z,139.50
2022-12-23T15:13:53.219Z,137.27
2022-12-23T15:16:56.718Z,170.75
2022-12-23T15:20:25.164Z,293.52
2022-12-23T15:23:29.093Z,180.17
2022-12-23T15:26:33.677Z,174.27
2022-12-23T15:29:37.257Z,183.05
2022-12-23T15:32:43.423Z,174.05
2022-12-23T15:35:47.748Z,226.25
2022-12-23T15:38:51.727Z,165.93
2022-12-23T15:41:55.970Z,182.13
2022-12-23T15:44:59.822Z,175.15
2022-12-23T15:48:05.388Z,165.23
2022-12-23T15:52:06.471Z,154.25
2022-12-23T15:55:33.094Z,115.53
2022-12-23T15:58:40.462Z,79.80
2022-12-23T16:01:44.113Z,74.65
2022-12-23T16:04:57.226Z,77.00
2022-12-23T16:08:24.596Z,72.53
2022-12-23T16:11:39.423Z,67.40
2022-12-23T16:14:50.015Z,74.00
2022-12-23T16:18:11.465Z,63.40
2022-12-23T16:21:16.107Z,61.60
2022-12-23T16:24:20.624Z,63.28
2022-12-23T16:27:40.750Z,57.93
2022-12-23T16:30:54.145Z,55.97
2022-12-23T16:33:58.688Z,62.47
2022-12-23T16:37:02.136Z,62.35
2022-12-23T16:40:14.455Z,61.10
2022-12-23T16:43:19.323Z,64.67
2022-12-23T16:46:23.963Z,62.17
2022-12-23T16:49:33.369Z,65.95
2022-12-23T16:52:37.305Z,63.05
2022-12-23T16:55:48.293Z,63.63
2022-12-23T16:58:55.453Z,66.53
2022-12-23T17:02:03.431Z,67.03
2022-12-23T17:05:08.008Z,59.85
2022-12-23T17:08:12.088Z,57.55
2022-12-23T17:11:34.710Z,62.58
2022-12-23T17:14:38.853Z,65.63
2022-12-23T17:17:42.309Z,82.27
2022-12-23T17:20:48.121Z,74.97
2022-12-23T17:23:54.702Z,62.45
2022-12-23T17:26:58.456Z,65.78
2022-12-23T17:30:02.356Z,62.40
2022-12-23T17:33:07.052Z,57.50
2022-12-23T17:36:11.943Z,57.00
2022-12-23T17:39:15.855Z,55.42
2022-12-23T17:42:25.603Z,56.22
2022-12-23T17:45:31.149Z,58.27
2022-12-23T17:48:34.720Z,62.40
2022-12-23T17:51:40.069Z,59.35
2022-12-23T17:54:44.243Z,61.42
2022-12-23T17:57:48.265Z,54.13
2022-12-23T18:00:52.642Z,57.07
2022-12-23T18:03:58.289Z,55.47
2022-12-23T18:07:01.758Z,54.00
2022-12-23T18:10:05.514Z,57.17
2022-12-23T18:13:14.368Z,53.05
2022-12-23T18:16:17.881Z,54.53
2022-12-23T18:19:21.739Z,58.37
2022-12-23T18:22:27.616Z,59.30
2022-12-23T18:25:31.721Z,62.38
2022-12-23T18:28:35.204Z,52.15
2022-12-23T18:31:50.563Z,54.47
2022-12-23T18:34:56.486Z,59.30
2022-12-23T18:38:01.206Z,57.95
2022-12-23T18:41:04.779Z,58.97
2022-12-23T18:44:21.119Z,59.75
2022-12-23T18:47:24.733Z,62.03
2022-12-23T18:50:28.729Z,61.47
2022-12-23T18:53:32.496Z,54.53
2022-12-23T18:56:36.029Z,64.53
2022-12-23T18:59:39.932Z,60.05
2022-12-23T19:02:43.813Z,54.30
2022-12-23T19:05:49.006Z,61.53
2022-12-23T19:08:52.503Z,57.50
2022-12-23T19:11:56.140Z,64.72
2022-12-23T19:14:59.644Z,55.95
2022-12-23T19:18:03.149Z,63.50
2022-12-23T19:21:07.093Z,70.33
2022-12-23T19:24:10.722Z,74.03
2022-12-23T19:27:14.193Z,77.10
2022-12-23T19:30:19.095Z,73.82
2022-12-23T19:33:22.593Z,76.20
2022-12-23T19:36:26.372Z,79.53
2022-12-23T19:39:30.023Z,72.07
2022-12-23T19:42:34.719Z,78.97
2022-12-23T19:45:38.271Z,74.10
2022-12-23T19:48:41.899Z,79.17
2022-12-23T19:51:45.384Z,78.20
2022-12-23T19:54:48.973Z,78.82
2022-12-23T19:57:52.578Z,74.32
2022-12-23T20:01:12.765Z,81.15
2022-12-23T20:04:16.345Z,89.13
2022-12-23T20:07:19.917Z,84.00
2022-12-23T20:10:24.877Z,79.43
2022-12-23T20:13:28.328Z,80.40
2022-12-23T20:16:33.534Z,86.97
2022-12-23T20:19:43.890Z,83.37
2022-12-23T20:22:49.607Z,76.27
2022-12-23T20:25:53.354Z,80.45
2022-12-23T20:28:58.511Z,76.57
2022-12-23T20:32:02.080Z,83.03
2022-12-23T20:35:06.576Z,86.67
2022-12-23T20:38:10.156Z,84.33
2022-12-23T20:41:16.932Z,79.40
2022-12-23T20:44:37.255Z,80.70
2022-12-23T20:47:41.105Z,97.32
2022-12-23T20:50:51.808Z,94.80
2022-12-23T20:53:59.905Z,109.50
2022-12-23T20:57:04.029Z,105.95
2022-12-23T21:00:08.155Z,121.55
2022-12-23T21:03:11.715Z,121.07
2022-12-23T21:06:15.215Z,116.73
2022-12-23T21:09:19.041Z,130.07
2022-12-23T21:12:22.530Z,134.60
2022-12-23T21:15:25.975Z,129.07
2022-12-23T21:18:29.583Z,180.82
2022-12-23T21:21:33.443Z,136.43
2022-12-23T21:24:36.872Z,135.33
2022-12-23T21:27:41.718Z,203.20
2022-12-23T21:30:48.901Z,195.40
2022-12-23T21:33:53.134Z,128.73
2022-12-23T21:36:56.656Z,134.37
2022-12-23T21:40:00.166Z,147.67
2022-12-23T21:43:08.492Z,182.27
2022-12-23T21:46:17.781Z,139.95
2022-12-23T21:49:21.535Z,127.72
2022-12-23T21:52:25.112Z,191.27
2022-12-23T21:55:28.588Z,176.73
2022-12-23T21:58:33.375Z,165.20
2022-12-23T22:01:36.872Z,160.55
2022-12-23T22:04:40.797Z,287.75
2022-12-23T22:07:44.292Z,136.03
2022-12-23T22:10:52.439Z,199.60
2022-12-23T22:14:00.139Z,203.48
2022-12-23T22:17:03.631Z,262.42
2022-12-23T22:20:07.924Z,204.30
2022-12-23T22:23:11.324Z,231.23
2022-12-23T22:26:24.244Z,236.57
2022-12-23T22:29:29.028Z,160.48
2022-12-23T22:32:33.951Z,208.10
2022-12-23T22:35:40.006Z,115.80
2022-12-23T22:38:44.123Z,106.57
2022-12-23T22:41:47.733Z,154.63
2022-12-23T22:44:51.141Z,316.70
2022-12-23T22:47:54.567Z,120.25
2022-12-23T22:51:13.111Z,240.25
2022-12-23T22:54:16.582Z,152.53
2022-12-23T22:57:20.103Z,351.53
2022-12-23T23:00:26.835Z,206.50
2022-12-23T23:03:30.561Z,207.65
2022-12-23T23:06:38.142Z,205.77
2022-12-23T23:09:41.917Z,163.23
2022-12-23T23:12:45.541Z,188.93
2022-12-23T23:15:49.470Z,156.45
2022-12-23T23:18:53.906Z,181.50
2022-12-23T23:21:57.415Z,211.65
2022-12-23T23:25:00.884Z,178.80
2022-12-23T23:28:04.961Z,91.40
2022-12-23T23:34:32.784Z,253.73
2022-12-23T23:37:36.177Z,141.30
2022-12-23T23:40:41.703Z,146.67
2022-12-23T23:43:45.333Z,136.67
2022-12-23T23:46:48.899Z,147.80
2022-12-23T23:49:52.359Z,245.90
2022-12-23T23:52:56.790Z,247.32
2022-12-23T23:56:05.130Z,318.83
2022-12-23T23:59:09.291Z,123.30
